ENAL

Details ICAO ENAL (AES)
Name Alesund lufthavn - Vigra
Region Norway
Timezone Europe/Oslo (UTC+2.0)
Plans Departing 117
Arriving 116
Stats Elevation 69 ft / 21 m (AMSL)
Location 62.560371° 6.110165°
Runways 1
Magnetic Variation 1.263° E
Sunrise 2018-06-25 01:38:42 UTC / 2018-06-25 03:38:42 Local
Sunset 2018-06-25 21:40:02 UTC / 2018-06-25 23:40:02 Local
Advertisement - Login to hide

Runways

ID Width Length Bearing (true) Bearing (mag) Surface Threshold Offset Overrun Length
07 148 ft / 45 m 7,563 ft / 2,305 m 64.61° 63.35° Asphalt 492 ft / 150 m 0 ft / 0 m
25 148 ft / 45 m 7,563 ft / 2,305 m 244.65° 243.39° Asphalt 758 ft / 231 m 0 ft / 0 m

Approach Navaids

Runway Type Ident Frequency Range Bearing (true) Bearing (mag) Slope Elevation
25 Localiser VGR 111.95 MHz 18 nm / 33 km 244.61° 243.35° - 72 ft / 22 m (AMSL)
25 Glidescope VGR 111.95 MHz 10 nm / 19 km 244.61° 243.35° 3.00° 18 ft / 5 m (AMSL)

Map

Weather


0- 5 10 15 20 25 30 35+ Temperature / ° C

Clouds and Precipitation
Forecast for 2018-06-25 12:00 UTC. Updated 35 minutes ago

Ground ~20,000 ft ~40,000 ft Winds

METAR

ENAL 250950Z 24017KT 9999 SCT009 BKN019 11/11 Q1022

TAF

Not found

Frequencies

Recorded 128.65 MHz ATIS
Tower 118.10 MHz TWR
Tower 119.85 MHz TWR
Tower 122.10 MHz TWR
Warning: Do not use this data for real-world aviation or navigation. No guarantee of current accuracy is given.